Time;durP1;ratioP1;P1;durP2;ratioP2;P2;SDS_P1;SDS_P2;PMS_P1;PMS_P2;Temp;Humidity;BMP_temperature;BMP_pressure;BME280_temperature;BME280_humidity;BME280_pressure;Samples;Min_cycle;Max_cycle;Signal;HPM_P1;HPM_P2
2023/01/03 00:01:57;;;;;;;9.85;6.95;;;3.40;99.90;;;;;;5053884;28;20045;-50
2023/01/03 00:04:23;;;;;;;8.68;6.88;;;3.40;99.90;;;;;;5035287;28;20088;-55
2023/01/03 00:06:50;;;;;;;11.75;7.50;;;3.40;99.90;;;;;;5035152;28;20354;-53
2023/01/03 00:09:17;;;;;;;7.72;6.45;;;3.40;99.90;;;;;;5035289;28;20109;-49
2023/01/03 00:14:29;;;;;;;9.10;5.88;;;3.40;99.90;;;;;;5035451;28;20068;-53
2023/01/03 00:16:56;;;;;;;8.88;5.80;;;3.40;99.90;;;;;;5035008;28;20099;-51
2023/01/03 00:19:23;;;;;;;7.85;5.53;;;3.40;99.90;;;;;;5034979;28;20128;-51
2023/01/03 00:21:50;;;;;;;9.27;4.40;;;3.40;99.90;;;;;;5035154;28;20091;-50
2023/01/03 00:24:16;;;;;;;6.70;3.30;;;3.40;99.90;;;;;;5034926;28;20061;-52
2023/01/03 00:26:43;;;;;;;5.65;3.10;;;3.50;99.90;;;;;;5034406;28;20093;-53
2023/01/03 00:29:11;;;;;;;4.35;2.80;;;3.50;99.90;;;;;;5034297;28;20523;-52
2023/01/03 00:31:37;;;;;;;7.15;3.33;;;3.50;99.90;;;;;;5035108;28;20045;-53
2023/01/03 00:34:04;;;;;;;7.38;3.47;;;3.50;99.90;;;;;;5033057;28;20041;-53
2023/01/03 00:36:31;;;;;;;4.57;3.10;;;3.60;99.90;;;;;;5034512;28;20045;-52
2023/01/03 00:38:57;;;;;;;7.85;3.28;;;3.60;99.90;;;;;;5035703;28;20041;-53
2023/01/03 00:41:24;;;;;;;7.65;3.88;;;3.60;99.90;;;;;;5054756;28;20056;-51
2023/01/03 00:43:51;;;;;;;6.28;3.45;;;3.60;99.90;;;;;;5054518;28;20048;-51
2023/01/03 00:46:18;;;;;;;5.93;3.30;;;3.60;99.90;;;;;;5052507;28;20041;-48
2023/01/03 00:48:45;;;;;;;7.22;3.80;;;3.60;99.90;;;;;;5054303;28;20033;-50
2023/01/03 00:51:12;;;;;;;7.70;3.53;;;3.60;99.90;;;;;;5053347;28;20079;-52
2023/01/03 00:53:38;;;;;;;7.72;3.38;;;3.70;99.90;;;;;;5054553;28;20049;-51
2023/01/03 00:56:05;;;;;;;6.68;3.40;;;3.70;99.90;;;;;;5052815;28;20103;-53
2023/01/03 00:58:32;;;;;;;6.45;3.92;;;3.80;99.90;;;;;;5051641;28;20491;-54
2023/01/03 01:00:59;;;;;;;7.00;3.72;;;3.80;99.90;;;;;;5053852;28;20103;-52
2023/01/03 01:03:25;;;;;;;6.00;3.65;;;3.90;99.90;;;;;;5054013;28;20116;-51
2023/01/03 01:05:52;;;;;;;9.48;3.90;;;3.90;99.90;;;;;;5047423;28;20045;-54
2023/01/03 01:08:19;;;;;;;7.85;3.97;;;3.90;99.90;;;;;;5034169;28;20049;-51
2023/01/03 01:11:00;;;;;;;5.97;3.58;;;4.00;99.90;;;;;;5034152;28;20049;-50
2023/01/03 01:13:27;;;;;;;9.00;3.55;;;4.00;99.90;;;;;;5053899;28;20037;-53
2023/01/03 01:15:55;;;;;;;7.13;3.88;;;4.10;99.90;;;;;;5053180;28;20057;-54
2023/01/03 01:18:22;;;;;;;8.00;3.72;;;4.20;99.90;;;;;;5052758;28;20044;-54
2023/01/03 01:20:49;;;;;;;5.60;3.55;;;4.30;99.90;;;;;;5054238;28;20372;-51
2023/01/03 01:23:16;;;;;;;5.65;3.47;;;4.30;99.90;;;;;;5053918;28;20052;-54
2023/01/03 01:25:42;;;;;;;5.03;3.10;;;4.40;99.90;;;;;;5052660;28;20045;-55
2023/01/03 01:28:09;;;;;;;5.47;3.40;;;4.50;99.90;;;;;;5049177;28;20048;-49
2023/01/03 01:30:36;;;;;;;6.60;2.75;;;4.60;99.90;;;;;;5033803;28;20095;-50
2023/01/03 01:33:03;;;;;;;6.57;3.17;;;4.70;99.90;;;;;;5033852;28;20088;-48
2023/01/03 01:35:29;;;;;;;4.85;2.95;;;4.70;99.90;;;;;;5032269;28;20078;-51
2023/01/03 01:37:56;;;;;;;7.22;3.00;;;4.80;99.90;;;;;;5032798;28;20069;-48
2023/01/03 01:40:23;;;;;;;6.30;3.17;;;4.80;99.90;;;;;;5033584;28;20042;-49
2023/01/03 01:45:36;;;;;;;7.13;3.47;;;4.90;99.90;;;;;;5053381;28;20045;-51
2023/01/03 01:48:03;;;;;;;6.50;2.88;;;4.90;99.90;;;;;;5053404;28;20427;-50
2023/01/03 01:50:30;;;;;;;5.25;2.72;;;4.90;99.90;;;;;;5046452;28;20484;-50
2023/01/03 01:52:57;;;;;;;5.43;2.97;;;5.00;99.90;;;;;;5033859;28;20095;-54
2023/01/03 01:55:24;;;;;;;4.95;2.85;;;5.00;99.90;;;;;;5032641;28;20037;-51
2023/01/03 01:57:50;;;;;;;6.07;3.10;;;5.00;99.90;;;;;;5033230;28;20053;-47
2023/01/03 02:00:17;;;;;;;5.88;3.35;;;5.00;99.90;;;;;;5033629;28;20045;-50
2023/01/03 02:02:44;;;;;;;7.60;3.80;;;5.00;99.90;;;;;;5033518;28;20049;-51
2023/01/03 02:05:11;;;;;;;5.93;3.20;;;5.00;99.90;;;;;;5032995;28;20049;-48
2023/01/03 02:07:38;;;;;;;5.13;3.28;;;5.00;99.90;;;;;;5033296;28;20046;-49
2023/01/03 02:10:05;;;;;;;7.22;3.40;;;5.10;99.90;;;;;;5031650;28;20496;-48
2023/01/03 02:15:17;;;;;;;6.37;3.43;;;5.10;99.90;;;;;;5041056;28;20126;-52
2023/01/03 02:17:43;;;;;;;8.50;3.65;;;5.20;99.90;;;;;;5053392;28;20365;-49
2023/01/03 02:20:10;;;;;;;5.20;3.72;;;5.20;99.90;;;;;;5052961;28;20128;-49
2023/01/03 02:22:37;;;;;;;6.45;3.75;;;5.20;99.90;;;;;;5047624;28;20041;-48
2023/01/03 02:25:04;;;;;;;5.20;3.78;;;5.20;99.90;;;;;;5048905;28;20052;-51
2023/01/03 02:27:30;;;;;;;8.23;3.78;;;5.20;99.90;;;;;;5032972;28;20429;-50
2023/01/03 02:29:57;;;;;;;6.10;4.13;;;5.20;99.90;;;;;;5033395;28;20133;-47
2023/01/03 02:32:24;;;;;;;7.45;4.40;;;5.20;99.90;;;;;;5032933;28;20073;-48
2023/01/03 02:34:51;;;;;;;8.18;4.07;;;5.30;99.90;;;;;;5032956;28;20045;-50
2023/01/03 02:37:18;;;;;;;7.80;4.38;;;5.30;99.90;;;;;;5033002;28;20117;-48
2023/01/03 02:39:46;;;;;;;9.50;4.40;;;5.40;99.90;;;;;;5032782;28;20045;-51
2023/01/03 02:44:58;;;;;;;9.35;4.05;;;5.40;99.90;;;;;;5033012;28;20400;-49
2023/01/03 02:47:24;;;;;;;8.10;4.60;;;5.50;99.90;;;;;;5031608;28;20080;-52
2023/01/03 02:49:54;;;;;;;9.38;4.80;;;5.50;99.90;;;;;;5036520;28;20091;-50
2023/01/03 02:52:21;;;;;;;7.57;4.38;;;5.50;99.90;;;;;;5036136;28;20034;-51
2023/01/03 02:54:47;;;;;;;11.43;5.30;;;5.60;99.90;;;;;;5035146;28;20080;-50
2023/01/03 02:57:14;;;;;;;8.85;4.78;;;5.60;99.90;;;;;;5055839;28;20037;-54
2023/01/03 02:59:41;;;;;;;8.05;4.90;;;5.70;99.90;;;;;;5056354;28;20040;-49
2023/01/03 03:02:08;;;;;;;8.40;4.70;;;5.70;99.90;;;;;;5055872;28;20041;-50
2023/01/03 03:04:35;;;;;;;11.65;5.05;;;5.80;99.90;;;;;;5035861;28;20034;-53
2023/01/03 03:07:01;;;;;;;8.57;4.75;;;5.80;99.90;;;;;;5035810;28;20045;-56
2023/01/03 03:09:28;;;;;;;8.00;4.45;;;5.80;99.90;;;;;;5035885;28;20041;-52
2023/01/03 03:14:40;;;;;;;9.02;5.00;;;5.90;99.90;;;;;;5051863;28;20056;-53
2023/01/03 03:17:07;;;;;;;7.10;4.80;;;5.90;99.90;;;;;;5054472;28;20472;-55
2023/01/03 03:25:05;;;;;;;8.30;4.53;;;6.00;99.90;;;;;;5035752;28;20040;-54
2023/01/03 03:30:18;;;;;;;14.85;5.68;;;6.10;99.90;;;;;;5035936;28;20393;-53
2023/01/03 03:32:44;;;;;;;13.77;6.03;;;6.00;99.90;;;;;;5039783;28;20041;-49
2023/01/03 03:35:11;;;;;;;13.02;5.72;;;6.10;99.90;;;;;;5056092;28;20083;-49
2023/01/03 03:37:38;;;;;;;8.70;5.35;;;6.10;99.90;;;;;;5055856;28;20075;-51
2023/01/03 03:45:35;;;;;;;12.40;5.25;;;6.20;99.90;;;;;;5055606;28;20106;-51
2023/01/03 03:48:02;;;;;;;8.90;4.75;;;6.20;99.90;;;;;;5041360;28;20504;-47
2023/01/03 03:50:29;;;;;;;7.70;4.47;;;6.20;99.90;;;;;;5036112;28;20088;-48
2023/01/03 03:52:56;;;;;;;13.45;5.15;;;6.20;99.90;;;;;;5035750;28;20090;-52
2023/01/03 03:55:23;;;;;;;10.15;5.13;;;6.30;99.90;;;;;;5044894;28;20037;-49
2023/01/03 03:57:49;;;;;;;9.30;4.60;;;6.30;99.90;;;;;;5055761;28;20068;-55
2023/01/03 04:00:16;;;;;;;8.40;4.53;;;6.30;99.90;;;;;;5038582;28;20103;-50
2023/01/03 04:02:45;;;;;;;10.85;4.63;;;6.30;99.90;;;;;;5035739;28;20033;-51
2023/01/03 04:05:12;;;;;;;10.60;4.95;;;6.30;99.90;;;;;;5051499;28;20044;-52
2023/01/03 04:07:39;;;;;;;10.55;4.85;;;6.30;99.90;;;;;;5055061;28;20045;-47
2023/01/03 04:10:06;;;;;;;11.55;5.35;;;6.40;99.90;;;;;;5055285;28;20052;-50
2023/01/03 04:12:32;;;;;;;11.75;5.13;;;6.40;99.90;;;;;;5055420;28;20068;-51
2023/01/03 04:14:59;;;;;;;8.90;4.95;;;6.40;99.90;;;;;;5036581;28;20206;-53
2023/01/03 04:17:26;;;;;;;13.25;4.72;;;6.50;99.90;;;;;;5035244;28;20103;-49
2023/01/03 04:19:53;;;;;;;11.50;5.63;;;6.50;99.90;;;;;;5054016;28;20144;-50
2023/01/03 04:22:19;;;;;;;12.95;5.32;;;6.50;99.90;;;;;;5054727;28;20051;-50
2023/01/03 04:24:46;;;;;;;13.18;4.97;;;6.60;99.90;;;;;;5048993;28;20095;-49
2023/01/03 04:27:13;;;;;;;12.73;4.60;;;6.60;99.90;;;;;;5034771;28;20091;-45
2023/01/03 04:29:40;;;;;;;12.13;4.93;;;6.60;99.90;;;;;;5034520;28;20111;-53
2023/01/03 04:32:07;;;;;;;9.32;4.70;;;6.60;99.90;;;;;;5039065;28;20033;-51
2023/01/03 04:34:34;;;;;;;16.88;5.63;;;6.60;99.90;;;;;;5054856;28;20468;-51
2023/01/03 04:37:00;;;;;;;11.88;5.60;;;6.60;99.90;;;;;;5054551;28;20498;-52
2023/01/03 04:39:27;;;;;;;13.38;5.90;;;6.60;99.90;;;;;;5037840;28;20091;-53
2023/01/03 04:41:54;;;;;;;19.27;5.78;;;6.70;99.90;;;;;;5034659;28;20072;-50
2023/01/03 04:44:21;;;;;;;15.32;5.72;;;6.70;99.90;;;;;;5034324;28;20044;-53
2023/01/03 04:46:47;;;;;;;20.73;6.88;;;6.70;99.90;;;;;;5034471;28;20079;-55
2023/01/03 04:49:19;;;;;;;18.83;6.57;;;6.70;99.90;;;;;;5034268;28;20560;-52
2023/01/03 04:51:46;;;;;;;12.65;5.75;;;6.70;99.90;;;;;;5034570;28;20041;-48
2023/01/03 04:54:12;;;;;;;8.85;5.13;;;6.70;99.90;;;;;;5044899;28;20495;-50
2023/01/03 04:56:39;;;;;;;20.77;7.35;;;6.60;99.90;;;;;;5054172;28;20468;-49
2023/01/03 04:59:06;;;;;;;16.10;5.72;;;6.70;99.90;;;;;;5054464;28;20045;-49
2023/01/03 05:01:33;;;;;;;14.70;6.05;;;6.60;99.90;;;;;;5052444;28;20480;-51
2023/01/03 05:04:00;;;;;;;17.27;5.55;;;6.60;99.90;;;;;;5054163;28;20091;-49
2023/01/03 05:06:27;;;;;;;17.58;6.70;;;6.60;99.90;;;;;;5035421;28;20053;-49
2023/01/03 05:08:53;;;;;;;16.77;5.40;;;6.60;99.90;;;;;;5034347;28;20046;-50
2023/01/03 05:11:20;;;;;;;13.48;4.65;;;6.50;99.90;;;;;;5038282;28;20048;-50
2023/01/03 05:13:47;;;;;;;9.73;4.38;;;6.50;99.90;;;;;;5052674;28;20500;-53
2023/01/03 05:16:14;;;;;;;12.82;4.22;;;6.50;99.90;;;;;;5053560;28;20033;-51
2023/01/03 05:18:43;;;;;;;10.75;3.97;;;6.50;99.90;;;;;;5053780;28;20488;-51
2023/01/03 05:26:51;;;;;;;11.15;4.32;;;6.60;99.90;;;;;;5031929;28;20061;-48
2023/01/03 05:29:18;;;;;;;14.07;4.03;;;6.60;99.90;;;;;;5045989;28;20084;-51
2023/01/03 05:31:45;;;;;;;12.38;4.18;;;6.60;99.90;;;;;;5032741;28;20120;-55
2023/01/03 05:34:11;;;;;;;14.10;4.30;;;6.60;99.90;;;;;;5032645;28;20488;-54
2023/01/03 05:36:38;;;;;;;16.15;4.22;;;6.60;99.90;;;;;;5051846;28;20041;-50
2023/01/03 05:39:05;;;;;;;10.90;4.00;;;6.60;99.90;;;;;;5052193;28;20037;-52
2023/01/03 05:44:17;;;;;;;12.67;5.50;;;6.60;99.90;;;;;;5033584;28;20506;-49
2023/01/03 05:46:44;;;;;;;16.45;4.60;;;6.70;99.90;;;;;;5051592;28;20285;-50
2023/01/03 05:49:10;;;;;;;14.82;4.80;;;6.70;99.90;;;;;;5049916;28;20112;-50
2023/01/03 05:51:37;;;;;;;15.10;4.50;;;6.70;99.90;;;;;;5040219;28;20056;-52
2023/01/03 05:54:04;;;;;;;16.55;4.25;;;6.70;99.90;;;;;;5052164;28;20083;-51
2023/01/03 05:56:30;;;;;;;11.57;3.67;;;6.70;99.90;;;;;;5053210;28;20068;-51
2023/01/03 05:58:57;;;;;;;17.90;4.57;;;6.70;99.90;;;;;;5053656;28;20457;-50
2023/01/03 06:01:27;;;;;;;15.88;4.32;;;6.70;99.90;;;;;;5053276;28;20049;-52
2023/01/03 06:03:54;;;;;;;14.30;3.88;;;6.70;99.90;;;;;;5034980;28;20041;-51
2023/01/03 06:06:21;;;;;;;17.48;4.25;;;6.70;99.90;;;;;;5033455;28;20049;-52
2023/01/03 06:08:48;;;;;;;13.00;3.60;;;6.70;99.90;;;;;;5033494;28;20155;-52
2023/01/03 06:11:15;;;;;;;15.05;3.47;;;6.70;99.90;;;;;;5034866;28;20073;-49
2023/01/03 06:13:42;;;;;;;16.50;4.30;;;6.70;99.90;;;;;;5035199;28;20040;-48
2023/01/03 06:18:54;;;;;;;9.98;2.83;;;6.80;99.90;;;;;;5053429;28;20049;-49
2023/01/03 06:21:21;;;;;;;14.73;4.03;;;6.80;99.90;;;;;;5049698;28;20068;-50
2023/01/03 06:23:48;;;;;;;13.43;3.75;;;6.80;99.90;;;;;;5035099;28;20455;-47
2023/01/03 06:26:16;;;;;;;13.77;3.58;;;6.90;99.90;;;;;;5036609;28;20490;-53
2023/01/03 06:28:42;;;;;;;12.63;3.70;;;6.90;99.90;;;;;;5035877;28;20050;-51
2023/01/03 06:31:09;;;;;;;15.45;3.25;;;6.90;99.90;;;;;;5037147;28;20044;-49
2023/01/03 06:33:36;;;;;;;16.52;4.40;;;6.90;99.90;;;;;;5036912;28;20117;-45
2023/01/03 06:36:03;;;;;;;13.48;3.60;;;6.90;99.90;;;;;;5036569;28;20044;-48
2023/01/03 06:38:30;;;;;;;13.30;3.75;;;6.90;99.90;;;;;;5036170;28;20041;-46
2023/01/03 06:40:57;;;;;;;13.05;3.60;;;6.90;99.90;;;;;;5036518;28;20037;-52
2023/01/03 06:43:24;;;;;;;13.43;3.63;;;6.90;99.90;;;;;;5040137;28;20177;-50
2023/01/03 06:54:07;;;;;;;16.70;3.85;;;7.00;99.90;;;;;;5036715;28;20061;-48
2023/01/03 06:56:33;;;;;;;17.90;3.75;;;7.00;99.90;;;;;;5036621;28;20129;-53
2023/01/03 06:59:00;;;;;;;15.00;3.72;;;7.00;99.90;;;;;;5036858;28;20029;-52
2023/01/03 07:01:27;;;;;;;14.45;3.72;;;7.00;99.90;;;;;;5035450;28;20064;-51
2023/01/03 07:03:54;;;;;;;13.15;3.70;;;7.00;99.90;;;;;;5044912;28;20061;-54
2023/01/03 07:06:23;;;;;;;15.27;3.80;;;7.00;99.90;;;;;;5050908;28;20060;-51
2023/01/03 07:08:50;;;;;;;16.20;4.03;;;7.00;99.90;;;;;;5038978;28;20136;-52
2023/01/03 07:11:17;;;;;;;14.40;4.30;;;6.90;99.90;;;;;;5051781;28;20083;-50
2023/01/03 07:13:59;;;;;;;17.83;3.72;;;7.00;99.90;;;;;;5035392;28;20396;-52
2023/01/03 07:16:26;;;;;;;17.67;4.50;;;6.90;99.90;;;;;;5043066;28;20488;-53
2023/01/03 07:18:52;;;;;;;15.00;3.55;;;6.90;99.90;;;;;;5041243;28;20044;-53
2023/01/03 07:21:21;;;;;;;18.35;3.20;;;6.90;99.90;;;;;;5050897;28;20037;-51
2023/01/03 07:23:48;;;;;;;15.40;3.47;;;6.90;99.90;;;;;;5051584;28;20119;-52
2023/01/03 07:26:15;;;;;;;9.77;3.33;;;7.00;99.90;;;;;;5043021;28;20124;-49
2023/01/03 07:28:42;;;;;;;17.13;3.90;;;7.00;99.90;;;;;;5051011;28;20045;-51
2023/01/03 07:31:09;;;;;;;20.25;3.17;;;7.00;99.90;;;;;;5054371;28;20068;-52
2023/01/03 07:33:37;;;;;;;14.85;3.63;;;7.10;99.90;;;;;;5054655;28;20039;-49
2023/01/03 07:36:04;;;;;;;12.52;4.13;;;7.00;99.90;;;;;;5052861;28;20048;-46
2023/01/03 07:38:37;;;;;;;15.75;3.03;;;7.00;99.90;;;;;;5056060;28;20041;-51
2023/01/03 07:41:04;;;;;;;11.95;2.60;;;7.10;99.90;;;;;;5054294;28;20065;-49
2023/01/03 07:43:37;;;;;;;11.75;2.78;;;7.10;99.90;;;;;;5051725;28;20400;-50
2023/01/03 07:46:04;;;;;;;14.38;2.95;;;7.10;99.90;;;;;;5034563;28;20037;-52
2023/01/03 07:48:30;;;;;;;13.02;3.45;;;7.20;99.90;;;;;;5035167;28;20050;-52
2023/01/03 07:50:57;;;;;;;10.27;2.65;;;7.30;99.90;;;;;;5050177;28;20431;-52
2023/01/03 07:53:27;;;;;;;17.83;3.25;;;7.30;99.90;;;;;;5045342;28;20034;-48
2023/01/03 07:55:53;;;;;;;16.88;2.67;;;7.40;99.90;;;;;;5052938;28;20049;-52
2023/01/03 07:58:20;;;;;;;16.33;2.88;;;7.40;99.90;;;;;;5044162;28;20074;-51
2023/01/03 08:00:47;;;;;;;17.10;2.67;;;7.40;99.90;;;;;;5036233;28;20106;-51
2023/01/03 08:03:14;;;;;;;19.70;2.40;;;7.50;99.90;;;;;;5054310;28;20076;-50
2023/01/03 08:05:41;;;;;;;13.43;2.15;;;7.50;99.90;;;;;;5050947;28;20380;-53
2023/01/03 08:08:08;;;;;;;19.23;2.70;;;7.50;99.90;;;;;;5036267;28;20455;-53
2023/01/03 08:13:20;;;;;;;14.88;2.40;;;7.50;99.90;;;;;;5051921;28;20134;-51
2023/01/03 08:15:47;;;;;;;17.80;2.75;;;7.60;99.90;;;;;;5053604;28;20061;-53
2023/01/03 08:18:14;;;;;;;21.70;3.40;;;7.60;99.90;;;;;;5042492;28;20041;-56
2023/01/03 08:20:40;;;;;;;20.75;2.53;;;7.60;99.90;;;;;;5034484;28;20053;-54
2023/01/03 08:23:07;;;;;;;15.32;3.45;;;7.70;99.90;;;;;;5034246;28;20045;-47
2023/01/03 08:25:34;;;;;;;19.15;2.60;;;7.70;99.90;;;;;;5036762;28;20041;-50
2023/01/03 08:28:01;;;;;;;21.63;2.63;;;7.80;99.90;;;;;;5046695;28;20045;-51
2023/01/03 08:30:27;;;;;;;17.73;2.80;;;7.80;99.90;;;;;;5043868;28;20069;-53
2023/01/03 08:32:54;;;;;;;18.15;2.55;;;7.90;99.90;;;;;;5050592;28;20106;-52
2023/01/03 08:35:21;;;;;;;22.65;3.35;;;8.00;99.90;;;;;;5041605;28;20033;-51
2023/01/03 08:37:48;;;;;;;15.68;2.83;;;8.00;99.90;;;;;;5045844;28;20041;-54
2023/01/03 08:40:15;;;;;;;25.58;3.17;;;8.10;99.90;;;;;;5038150;28;20049;-49
2023/01/03 08:42:42;;;;;;;20.50;2.67;;;8.20;99.90;;;;;;5031551;28;20042;-51
2023/01/03 08:45:09;;;;;;;22.00;5.20;;;8.20;99.90;;;;;;5044154;28;20040;-50
2023/01/03 08:47:35;;;;;;;20.52;3.03;;;8.30;99.90;;;;;;5048697;28;20087;-48
2023/01/03 08:50:02;;;;;;;15.30;3.22;;;8.30;99.90;;;;;;5045638;28;20094;-54
2023/01/03 08:52:29;;;;;;;19.90;3.15;;;8.40;99.90;;;;;;5044527;28;20435;-51
2023/01/03 08:55:01;;;;;;;18.05;3.05;;;8.40;99.90;;;;;;5046188;28;20045;-50
2023/01/03 08:57:27;;;;;;;19.60;2.72;;;8.50;99.90;;;;;;5045467;28;20069;-51
2023/01/03 08:59:54;;;;;;;23.98;3.13;;;8.50;99.90;;;;;;5059036;28;20102;-53
2023/01/03 09:02:21;;;;;;;17.02;2.78;;;8.60;99.90;;;;;;5049756;28;20508;-52
2023/01/03 09:04:48;;;;;;;21.20;3.10;;;8.60;99.90;;;;;;5049151;28;20056;-52
2023/01/03 09:07:15;;;;;;;23.02;3.50;;;8.70;99.90;;;;;;5045336;28;20067;-53
2023/01/03 09:09:41;;;;;;;18.50;2.55;;;8.80;99.90;;;;;;5043711;28;20041;-51
2023/01/03 09:12:08;;;;;;;13.02;2.42;;;8.80;99.90;;;;;;5055081;28;20045;-50
2023/01/03 09:14:35;;;;;;;20.30;3.08;;;8.90;99.90;;;;;;5053437;28;20063;-50
2023/01/03 09:17:02;;;;;;;17.30;2.58;;;8.90;99.90;;;;;;5053346;28;20044;-52
2023/01/03 09:19:28;;;;;;;16.27;3.00;;;8.90;99.90;;;;;;5065816;28;20064;-52
2023/01/03 09:21:55;;;;;;;18.60;3.20;;;9.00;99.90;;;;;;5053651;28;20036;-52
2023/01/03 09:24:22;;;;;;;20.50;3.42;;;9.00;99.90;;;;;;5053385;28;20037;-47
2023/01/03 09:26:49;;;;;;;20.83;3.13;;;9.10;99.90;;;;;;5048547;28;20091;-50
2023/01/03 09:29:20;;;;;;;16.30;2.60;;;9.10;99.90;;;;;;5048396;28;20416;-50
2023/01/03 09:31:47;;;;;;;15.52;2.88;;;9.10;99.90;;;;;;5051906;28;20041;-50
2023/01/03 09:34:14;;;;;;;24.40;3.97;;;9.10;99.90;;;;;;5049433;28;20041;-50
2023/01/03 09:36:40;;;;;;;23.05;3.53;;;9.10;99.90;;;;;;5047890;28;20061;-49
2023/01/03 09:39:07;;;;;;;23.27;3.13;;;9.20;99.90;;;;;;5036843;28;20428;-54
2023/01/03 09:41:34;;;;;;;13.18;2.70;;;9.20;99.90;;;;;;5038308;28;20029;-50
2023/01/03 09:44:01;;;;;;;21.58;3.35;;;9.20;99.90;;;;;;5044095;28;20049;-47
2023/01/03 09:46:28;;;;;;;18.48;2.97;;;9.20;99.90;;;;;;5044327;28;20464;-47
2023/01/03 09:48:55;;;;;;;15.05;2.70;;;9.20;99.90;;;;;;5040622;28;20037;-49
2023/01/03 10:05:09;;;;;;;15.95;2.70;;;9.30;99.90;;;;;;5044880;28;20053;-47
2023/01/03 10:07:36;;;;;;;20.20;2.90;;;9.30;99.90;;;;;;5050592;28;20041;-50
2023/01/03 10:10:03;;;;;;;17.35;3.10;;;9.30;99.90;;;;;;5047651;28;20079;-46
2023/01/03 10:12:37;;;;;;;13.25;2.85;;;9.30;99.90;;;;;;5049866;28;20044;-48
2023/01/03 10:15:03;;;;;;;15.32;2.80;;;9.30;99.90;;;;;;5050043;28;20045;-46
2023/01/03 10:17:30;;;;;;;14.60;3.05;;;9.30;99.90;;;;;;5052642;28;20029;-47
2023/01/03 10:19:57;;;;;;;17.08;2.78;;;9.30;99.90;;;;;;5041914;28;20243;-46
2023/01/03 10:22:24;;;;;;;16.83;3.25;;;9.30;99.90;;;;;;5046327;28;20029;-48
2023/01/03 10:24:50;;;;;;;18.00;3.15;;;9.30;99.90;;;;;;5043784;28;20116;-51
2023/01/03 10:27:18;;;;;;;16.27;3.58;;;9.30;99.90;;;;;;5040486;28;20076;-48
2023/01/03 10:29:44;;;;;;;16.27;2.90;;;9.30;99.90;;;;;;5043119;28;20053;-50
2023/01/03 10:32:11;;;;;;;15.18;2.75;;;9.40;99.90;;;;;;5038501;28;20045;-48
2023/01/03 10:34:38;;;;;;;16.45;3.13;;;9.30;99.90;;;;;;5047434;28;20041;-54
2023/01/03 10:37:05;;;;;;;20.42;3.40;;;9.40;99.90;;;;;;5047654;28;20125;-53
2023/01/03 10:39:32;;;;;;;12.02;2.60;;;9.40;99.90;;;;;;5052495;28;20046;-48
2023/01/03 10:41:58;;;;;;;17.05;3.38;;;9.40;99.90;;;;;;5041714;28;20045;-51
2023/01/03 10:44:25;;;;;;;15.63;3.40;;;9.40;99.90;;;;;;5043087;28;20088;-56
2023/01/03 10:46:52;;;;;;;14.20;2.80;;;9.40;99.90;;;;;;5048252;28;20120;-49
2023/01/03 10:49:20;;;;;;;17.23;2.67;;;9.40;99.90;;;;;;5046467;28;20037;-55
2023/01/03 10:51:56;;;;;;;12.52;3.08;;;9.40;99.90;;;;;;5039838;28;20493;-48
2023/01/03 10:54:23;;;;;;;13.27;2.90;;;9.50;99.90;;;;;;5042892;28;20049;-45
2023/01/03 10:56:50;;;;;;;20.08;2.97;;;9.50;99.90;;;;;;5042126;28;20053;-49
2023/01/03 10:59:16;;;;;;;15.73;2.75;;;9.50;99.90;;;;;;5045811;28;20033;-55
2023/01/03 11:01:43;;;;;;;21.98;2.88;;;9.50;99.90;;;;;;5048573;28;20494;-48
2023/01/03 11:04:10;;;;;;;17.00;2.78;;;9.50;99.90;;;;;;5041446;28;20037;-47
2023/01/03 11:06:37;;;;;;;16.98;3.00;;;9.50;99.90;;;;;;5045887;28;20053;-50
2023/01/03 11:09:04;;;;;;;22.30;3.65;;;9.50;99.90;;;;;;5044295;28;20037;-55
2023/01/03 11:11:30;;;;;;;15.57;3.35;;;9.60;99.90;;;;;;5043902;28;20087;-52
2023/01/03 11:13:57;;;;;;;12.30;2.78;;;9.60;99.90;;;;;;5039971;28;20044;-52
2023/01/03 11:16:24;;;;;;;19.48;3.03;;;9.60;99.90;;;;;;5045842;28;20033;-50
2023/01/03 11:18:51;;;;;;;20.40;3.03;;;9.60;99.90;;;;;;5054241;28;20111;-51
2023/01/03 11:21:22;;;;;;;20.45;3.60;;;9.60;99.90;;;;;;5043692;28;20037;-50
2023/01/03 11:23:49;;;;;;;20.58;3.50;;;9.70;99.90;;;;;;5041328;28;20086;-53
2023/01/03 11:26:15;;;;;;;16.75;3.33;;;9.70;99.90;;;;;;5041423;28;20399;-46
2023/01/03 11:28:42;;;;;;;16.90;3.20;;;9.70;99.90;;;;;;5043494;28;20388;-54
2023/01/03 11:31:09;;;;;;;17.80;2.58;;;9.70;99.90;;;;;;5044247;28;20136;-55
2023/01/03 11:33:36;;;;;;;20.50;2.72;;;9.70;99.90;;;;;;5042561;28;20041;-55
2023/01/03 11:36:03;;;;;;;20.67;4.38;;;9.70;99.90;;;;;;5042940;28;20132;-48
2023/01/03 11:38:29;;;;;;;17.50;2.88;;;9.70;99.90;;;;;;5045382;28;20048;-52
2023/01/03 11:40:56;;;;;;;13.77;2.72;;;9.70;99.90;;;;;;5048097;28;20029;-52
2023/01/03 11:43:23;;;;;;;13.80;2.95;;;9.70;99.90;;;;;;5042619;28;20052;-52
2023/01/03 11:45:50;;;;;;;20.40;3.15;;;9.70;99.90;;;;;;5046674;28;20057;-49
2023/01/03 11:48:16;;;;;;;18.63;3.70;;;9.70;99.90;;;;;;5045130;28;20094;-51
2023/01/03 11:50:43;;;;;;;12.90;2.58;;;9.70;99.90;;;;;;5042718;28;20052;-51
2023/01/03 11:53:10;;;;;;;18.52;2.75;;;9.70;99.90;;;;;;5044999;28;20041;-51
2023/01/03 11:55:37;;;;;;;17.60;3.17;;;9.70;99.90;;;;;;5038612;28;20041;-53
2023/01/03 11:58:04;;;;;;;13.75;2.97;;;9.70;99.90;;;;;;5043198;28;20052;-54
2023/01/03 12:00:31;;;;;;;12.23;2.35;;;9.70;99.90;;;;;;5040208;28;20048;-50
2023/01/03 12:02:58;;;;;;;14.35;3.15;;;9.70;99.90;;;;;;5042384;28;20056;-50
2023/01/03 12:05:25;;;;;;;18.50;2.85;;;9.70;99.90;;;;;;5044334;28;20033;-55
2023/01/03 12:07:51;;;;;;;12.05;2.67;;;9.80;99.90;;;;;;5040023;28;20124;-50
2023/01/03 12:10:18;;;;;;;13.10;2.63;;;9.80;99.90;;;;;;5049514;28;20477;-51
2023/01/03 12:12:45;;;;;;;16.70;2.40;;;9.80;99.90;;;;;;5042930;28;20052;-52
2023/01/03 12:15:12;;;;;;;13.25;2.20;;;9.80;99.90;;;;;;5048404;28;20059;-50
2023/01/03 12:17:39;;;;;;;12.65;2.25;;;9.80;99.90;;;;;;5052503;28;20037;-50
2023/01/03 12:20:06;;;;;;;12.95;2.60;;;9.80;99.90;;;;;;5038946;28;20433;-55
2023/01/03 12:22:32;;;;;;;13.65;2.72;;;9.80;99.90;;;;;;5046241;28;20037;-50
2023/01/03 12:24:59;;;;;;;16.17;2.65;;;9.80;99.90;;;;;;5039873;28;20057;-49
2023/01/03 12:27:31;;;;;;;12.20;2.17;;;9.80;99.90;;;;;;5044497;28;20033;-52
2023/01/03 12:29:58;;;;;;;13.18;2.50;;;9.80;99.90;;;;;;5040047;28;20044;-54
2023/01/03 12:32:24;;;;;;;14.90;2.45;;;9.80;99.90;;;;;;5041352;28;20111;-54
2023/01/03 12:34:51;;;;;;;13.88;2.40;;;9.80;99.90;;;;;;5043855;28;20049;-55
2023/01/03 12:37:18;;;;;;;11.32;2.50;;;9.80;99.90;;;;;;5037390;28;20045;-52
2023/01/03 12:39:45;;;;;;;11.77;2.20;;;9.80;99.90;;;;;;5047611;28;20041;-55
2023/01/03 12:42:12;;;;;;;14.35;2.50;;;9.80;99.90;;;;;;5045868;28;20037;-52
2023/01/03 12:44:39;;;;;;;11.93;2.33;;;9.80;99.90;;;;;;5042220;28;20485;-48
2023/01/03 12:47:05;;;;;;;11.75;2.85;;;9.80;99.90;;;;;;5045032;28;20063;-51
2023/01/03 12:49:32;;;;;;;13.40;2.10;;;9.80;99.90;;;;;;5040062;28;20444;-52
2023/01/03 12:51:59;;;;;;;11.68;2.10;;;9.80;99.90;;;;;;5044105;28;20102;-49
2023/01/03 12:54:26;;;;;;;14.38;2.20;;;9.80;99.90;;;;;;5041773;28;20075;-54
2023/01/03 12:56:53;;;;;;;11.65;1.95;;;9.80;99.90;;;;;;5040575;28;20076;-49
2023/01/03 12:59:19;;;;;;;11.05;2.25;;;9.80;99.90;;;;;;5057466;28;20041;-50
2023/01/03 13:01:46;;;;;;;15.25;2.55;;;9.80;99.90;;;;;;5044924;28;20067;-51
2023/01/03 13:04:13;;;;;;;9.98;2.28;;;9.80;99.90;;;;;;5040736;28;20041;-51
2023/01/03 13:06:48;;;;;;;11.90;2.10;;;9.90;99.90;;;;;;5032798;28;20055;-52
2023/01/03 13:09:15;;;;;;;9.60;1.98;;;9.80;99.90;;;;;;5040262;28;20112;-49
2023/01/03 13:11:42;;;;;;;10.27;1.90;;;9.90;99.90;;;;;;5038087;28;20373;-51
2023/01/03 13:14:08;;;;;;;10.30;1.80;;;9.90;99.90;;;;;;5036695;28;20099;-51
2023/01/03 13:16:35;;;;;;;10.32;2.13;;;9.90;99.90;;;;;;5043592;28;20389;-53
2023/01/03 13:19:02;;;;;;;9.90;1.83;;;9.90;99.90;;;;;;5035661;28;20056;-50
2023/01/03 13:21:29;;;;;;;10.05;2.20;;;9.90;99.90;;;;;;5039942;28;20481;-52
2023/01/03 13:23:56;;;;;;;13.93;2.63;;;10.00;99.90;;;;;;5038908;28;20095;-53
2023/01/03 13:26:23;;;;;;;16.00;2.83;;;10.00;99.90;;;;;;5039795;28;20484;-50
2023/01/03 13:28:50;;;;;;;12.95;2.05;;;10.00;99.90;;;;;;5041156;28;20045;-52
2023/01/03 13:31:17;;;;;;;8.15;1.80;;;10.00;99.90;;;;;;5039615;28;20052;-49
2023/01/03 13:33:44;;;;;;;12.82;2.30;;;10.00;99.90;;;;;;5039652;28;20036;-53
2023/01/03 13:36:11;;;;;;;14.18;2.50;;;10.10;99.90;;;;;;5041038;28;20076;-48
2023/01/03 13:38:37;;;;;;;15.05;2.60;;;10.10;99.90;;;;;;5044168;28;20047;-50
2023/01/03 13:41:08;;;;;;;18.35;3.30;;;10.10;99.90;;;;;;5042997;28;20033;-50
2023/01/03 13:43:44;;;;;;;14.93;2.17;;;10.10;99.90;;;;;;5043432;28;20063;-49
2023/01/03 13:46:11;;;;;;;11.70;2.88;;;10.10;99.90;;;;;;5037321;28;20050;-46
2023/01/03 13:48:38;;;;;;;15.10;2.60;;;10.10;99.90;;;;;;5045034;28;20052;-48
2023/01/03 13:51:05;;;;;;;15.43;3.20;;;10.10;99.90;;;;;;5038194;28;20176;-48
2023/01/03 13:53:32;;;;;;;17.38;3.05;;;10.10;99.90;;;;;;5037451;28;20041;-48